Data for 03/29/2015

Time Sea-Level Adjusted Pressure Absolute Pressure Temperature Relative Humidity Dew Point   
(mb) (inHg) (mb) (inHg) (C) (F) (%) (C) (F)
00:05 1025 30.27 855 25.25 3.1 37.5 48 -7 19.4
00:10 1025 30.27 855 25.25 2.9 37.3 48 -7.1 19.1
00:15 1025 30.27 855 25.25 3 37.4 48 -7.1 19.2
00:20 1025 30.27 855 25.25 3 37.4 47 -7.1 19.1
00:25 1025 30.27 855 25.25 3 37.5 47 -7.1 19.2
00:30 1025 30.27 855 25.25 3 37.4 48 -7 19.4
00:35 1026 30.3 855 25.25 2.9 37.2 49 -6.9 19.7
00:40 1026 30.3 855 25.25 2.7 36.8 50 -6.8 19.7
00:45 1026 30.3 855 25.25 2.5 36.5 50 -7 19.4
00:50 1026 30.3 855 25.25 2.6 36.6 50 -6.9 19.5
00:55 1026 30.3 855 25.25 2.7 36.9 49 -7.1 19.2
01:00 1026 30.3 855 25.25 2.8 37 49 -6.9 19.5
01:05 1026 30.3 855 25.25 2.7 36.9 49 -7 19.4
01:10 1026 30.3 855 25.25 2.8 37 49 -7 19.4
01:15 1026 30.3 855 25.25 2.8 37 49 -6.9 19.5
01:20 1026 30.3 855 25.25 2.7 36.8 49 -6.9 19.5
01:25 1026 30.3 855 25.25 2.7 36.8 48 -7.2 19
01:30 1026 30.3 855 25.25 2.9 37.2 48 -7 19.5
01:35 1026 30.3 855 25.25 2.9 37.1 49 -6.9 19.7
01:40 1026 30.3 855 25.25 2.8 37 49 -6.9 19.5
01:45 1025 30.27 855 25.25 2.8 37 48 -7.2 19
01:50 1026 30.3 855 25.25 2.9 37.1 49 -6.8 19.8
01:55 1026 30.3 855 25.25 2.4 36.4 50 -7 19.3
02:00 1026 30.3 855 25.25 2.4 36.3 50 -7.1 19.3
02:05 1026 30.3 855 25.25 2.5 36.5 49 -7.2 19
02:10 1026 30.3 855 25.25 2.6 36.6 48 -7.3 18.9
02:15 1026 30.3 855 25.25 2.4 36.4 49 -7.2 19.1
02:20 1026 30.3 855 25.25 2.2 35.9 50 -7.3 18.9
02:25 1026 30.3 855 25.25 2 35.6 50 -7.3 18.9
02:30 1026 30.3 855 25.25 2.2 35.9 50 -7.3 18.8
02:35 1026 30.3 855 25.25 2.3 36.1 49 -7.5 18.6
02:40 1026 30.3 855 25.25 2.8 37 46 -7.6 18.3
02:45 1026 30.3 855 25.25 3 37.4 46 -7.6 18.3
02:50 1026 30.3 855 25.25 3.1 37.6 46 -7.4 18.7
02:55 1025 30.27 855 25.25 3 37.5 46 -7.5 18.6
03:00 1025 30.27 855 25.25 2.8 37.1 47 -7.3 18.8
03:05 1025 30.27 855 25.25 2.5 36.5 50 -7 19.4
03:10 1025 30.27 854 25.22 1.8 35.3 52 -6.9 19.6
03:15 1025 30.27 854 25.22 1.5 34.7 54 -6.9 19.5
03:20 1025 30.27 854 25.22 1.2 34.2 54 -7 19.4
03:25 1025 30.27 855 25.25 1 33.8 56 -6.9 19.6
03:30 1025 30.27 855 25.25 0.7 33.2 56 -7 19.3
03:35 1026 30.3 855 25.25 0.8 33.4 56 -7.1 19.2
03:40 1025 30.27 855 25.25 1.2 34.2 54 -7 19.3
03:45 1025 30.27 855 25.25 1.3 34.3 54 -7 19.4
03:50 1025 30.27 855 25.25 1.1 34 55 -6.9 19.6
03:55 1025 30.27 855 25.25 0.9 33.7 56 -6.9 19.6
04:00 1025 30.27 855 25.25 0.8 33.5 55 -7.3 18.8
04:05 1025 30.27 855 25.25 1.1 34 55 -6.9 19.6
04:10 1025 30.27 855 25.25 1 33.8 56 -6.8 19.7
04:15 1025 30.27 855 25.25 0.8 33.5 57 -6.8 19.7
04:20 1026 30.3 855 25.25 0.7 33.2 57 -6.8 19.8
04:25 1026 30.3 855 25.25 0.3 32.6 59 -6.9 19.7
04:30 1026 30.3 855 25.25 0.3 32.6 58 -7 19.4
04:35 1026 30.3 855 25.25 0.2 32.4 60 -6.7 19.9
04:40 1026 30.3 855 25.25 0.1 32.1 58 -7.3 18.9
04:45 1026 30.3 855 25.25 0.7 33.2 55 -7.3 18.8
04:50 1026 30.3 855 25.25 1 33.7 55 -7.1 19.2
04:55 1026 30.3 855 25.25 0.7 33.2 58 -6.6 20.1
05:00 1026 30.3 855 25.25 0 32 61 -6.6 20.1
05:05 1026 30.3 855 25.25 0 32.1 59 -7 19.3
05:10 1026 30.3 855 25.25 0.2 32.4 57 -7.2 19
05:15 1026 30.3 855 25.25 0.4 32.7 59 -6.7 19.9
05:20 1026 30.3 855 25.25 -0.1 31.8 62 -6.6 20.2
05:25 1026 30.3 855 25.25 -0.2 31.7 63 -6.5 20.4
05:30 1026 30.3 855 25.25 -0.1 31.8 61 -6.6 20
05:35 1026 30.3 855 25.25 -0.2 31.7 62 -6.6 20.1
05:40 1026 30.3 855 25.25 -0.3 31.6 62 -6.7 19.9
05:45 1026 30.3 855 25.25 -0.3 31.5 63 -6.5 20.3
05:50 1026 30.3 855 25.25 -0.1 31.8 62 -6.6 20.1
05:55 1026 30.3 855 25.25 -0.4 31.4 63 -6.6 20.2
06:00 1026 30.3 855 25.25 -0.5 31.1 64 -6.5 20.3
06:05 1026 30.3 855 25.25 -0.5 31.1 63 -6.7 20
06:10 1026 30.3 855 25.25 -0.6 30.9 63 -6.8 19.8
06:15 1026 30.3 855 25.25 -0.6 31 65 -6.4 20.5
06:20 1026 30.3 855 25.25 -0.6 30.9 63 -6.8 19.8
06:25 1026 30.3 855 25.25 -0.6 30.9 63 -6.8 19.8
06:30 1026 30.3 855 25.25 -0.6 31 63 -6.8 19.7
06:35 1026 30.3 855 25.25 -0.5 31.2 62 -6.8 19.7
06:40 1026 30.3 855 25.25 -0.3 31.4 61 -6.9 19.6
06:45 1026 30.3 855 25.25 -0.2 31.6 61 -6.9 19.6
06:50 1025 30.27 855 25.25 0 32 61 -6.7 19.9
06:55 1025 30.27 855 25.25 0.6 33.1 58 -6.7 19.9
07:00 1025 30.27 855 25.25 1.2 34.2 56 -6.7 20
07:05 1026 30.3 855 25.25 1.4 34.6 55 -6.6 20.1
07:10 1025 30.27 855 25.25 1.8 35.2 54 -6.6 20.2
07:15 1025 30.27 855 25.25 2 35.7 54 -6.4 20.4
07:20 1025 30.27 855 25.25 2.1 35.7 54 -6.3 20.6
07:25 1026 30.3 855 25.25 2.2 35.9 54 -6.1 21
07:30 1026 30.3 855 25.25 2.4 36.3 54 -6 21.2
07:35 1026 30.3 855 25.25 2.4 36.4 53 -6.1 21
07:40 1025 30.27 855 25.25 2.4 36.3 52 -6.4 20.5
07:45 1025 30.27 855 25.25 2.8 37 51 -6.3 20.6
07:50 1025 30.27 855 25.25 3.3 37.9 48 -6.7 19.9
07:55 1025 30.27 854 25.22 3.4 38.2 49 -6.3 20.6
08:00 1025 30.27 854 25.22 3.9 39 46 -6.6 20.1
08:05 1025 30.27 854 25.22 4 39.2 45 -6.9 19.6
08:10 1025 30.27 854 25.22 4.5 40 43 -6.9 19.6
08:15 1025 30.27 854 25.22 5 40.9 41 -7.4 18.7
08:20 1025 30.27 854 25.22 5.5 41.9 38 -7.6 18.4
08:25 1025 30.27 854 25.22 6.3 43.4 37 -7.5 18.6
08:30 1025 30.27 854 25.22 6.5 43.8 36 -7.4 18.7
08:35 1025 30.27 854 25.22 6.8 44.3 35 -7.6 18.3
08:40 1025 30.27 854 25.22 7.1 44.8 35 -7.5 18.5
08:45 1025 30.27 854 25.22 7.2 45 35 -7.2 19.1
08:50 1025 30.27 854 25.22 7 44.6 36 -7.2 19.1
08:55 1025 30.27 854 25.22 7 44.7 37 -6.8 19.7
09:00 1025 30.27 854 25.22 6.9 44.4 38 -6.6 20.1
09:05 1025 30.27 854 25.22 6.9 44.4 37 -6.8 19.7
09:10 1025 30.27 855 25.25 7 44.6 36 -7.1 19.2
09:15 1025 30.27 855 25.25 7.5 45.6 35 -6.9 19.6
09:20 1025 30.27 854 25.22 8 46.3 34 -6.9 19.6
09:25 1025 30.27 855 25.25 7.8 46 34 -7.2 19
09:30 1025 30.27 855 25.25 7.1 44.9 34 -7.7 18.2
09:35 1025 30.27 854 25.22 7.5 45.4 35 -7.1 19.3
09:40 1025 30.27 854 25.22 7.7 45.8 35 -6.9 19.5
09:45 1025 30.27 854 25.22 7.7 45.9 33 -7.4 18.7
09:50 1025 30.27 854 25.22 7.4 45.3 36 -6.8 19.8
09:55 1025 30.27 854 25.22 7.7 45.8 32 -7.9 17.8
10:00 1025 30.27 854 25.22 8.7 47.6 31 -7.5 18.5
10:05 1025 30.27 854 25.22 9.4 48.8 29 -8 17.7
10:10 1025 30.27 854 25.22 9.5 49.1 29 -7.7 18.2
10:15 1025 30.27 854 25.22 9.2 48.5 30 -7.3 18.9
10:20 1025 30.27 854 25.22 8.5 47.3 31 -7.6 18.2
10:25 1025 30.27 854 25.22 8.6 47.5 30 -8 17.7
10:30 1025 30.27 854 25.22 9.7 49.4 26 -8.9 15.9
10:35 1025 30.27 854 25.22 10.3 50.5 26 -8.4 16.8
10:40 1025 30.27 854 25.22 10.6 51 24 -9.1 15.7
10:45 1025 30.27 854 25.22 10.5 51 24 -9.1 15.6
10:50 1025 30.27 854 25.22 11 51.8 24 -8.6 16.6
10:55 1025 30.27 854 25.22 11 51.9 23 -9.1 15.6
11:00 1025 30.27 854 25.22 11 51.8 24 -8.9 16
11:05 1025 30.27 854 25.22 11.1 52.1 24 -8.9 16
11:10 1025 30.27 854 25.22 11.6 52.8 23 -8.7 16.3
11:15 1025 30.27 854 25.22 11.7 53 23 -8.9 16
11:20 1025 30.27 854 25.22 11.6 52.9 23 -8.6 16.5
11:25 1025 30.27 854 25.22 11.3 52.3 24 -8.7 16.4
11:30 1025 30.27 854 25.22 11.3 52.4 24 -8.5 16.8
11:35 1024 30.24 854 25.22 11.5 52.8 23 -8.8 16.2
11:40 1024 30.24 854 25.22 11.7 53.1 24 -8.2 17.2
11:45 1024 30.24 853 25.19 11.4 52.6 24 -8.5 16.6
11:50 1024 30.24 853 25.19 10.5 50.8 25 -8.6 16.6
11:55 1024 30.24 853 25.19 11.1 52 24 -8.9 15.9
12:00 1024 30.24 853 25.19 11.9 53.3 23 -8.6 16.5
12:05 1024 30.24 853 25.19 12 53.6 23 -8.3 17.1
12:10 1024 30.24 853 25.19 11.3 52.3 25 -8.3 17.1
12:15 1024 30.24 853 25.19 10.7 51.3 25 -8.7 16.4
12:20 1024 30.24 853 25.19 10.9 51.7 24 -8.8 16.2
12:25 1023 30.21 853 25.19 11.1 51.9 24 -8.8 16.2
12:30 1023 30.21 853 25.19 10.8 51.5 24 -8.8 16.2
12:35 1023 30.21 853 25.19 11.1 52 23 -9 15.8
12:40 1023 30.21 852 25.16 11.8 53.3 23 -8.6 16.6
12:45 1023 30.21 853 25.19 12.1 53.8 23 -8.6 16.6
12:50 1023 30.21 852 25.16 12.3 54.2 22 -8.7 16.4
12:55 1023 30.21 852 25.16 12.2 53.9 23 -8.5 16.7
13:00 1023 30.21 852 25.16 11.4 52.6 23 -8.8 16.1
13:05 1023 30.21 852 25.16 11.8 53.3 23 -8.5 16.7
13:10 1023 30.21 852 25.16 11.9 53.3 24 -8 17.6
13:15 1023 30.21 852 25.16 11.8 53.2 23 -8.5 16.6
13:20 1023 30.21 852 25.16 11.9 53.4 22 -8.9 15.9
13:25 1023 30.21 852 25.16 12.9 55.2 22 -8.1 17.4
13:30 1023 30.21 852 25.16 13.6 56.4 21 -8.4 16.9
13:35 1022 30.18 852 25.16 13.4 56.2 21 -8.3 17.1
13:40 1022 30.18 852 25.16 13.3 55.9 22 -8.2 17.2
13:45 1022 30.18 851 25.13 12.8 55 22 -8.3 17
13:50 1022 30.18 851 25.13 12.9 55.2 21 -8.6 16.5
13:55 1022 30.18 851 25.13 13.1 55.6 21 -8.6 16.6
14:00 1022 30.18 851 25.13 13.3 55.9 22 -8 17.5
14:05 1022 30.18 851 25.13 12.4 54.4 22 -8.8 16.1
14:10 1022 30.18 851 25.13 12.9 55.2 21 -8.7 16.4
14:15 1022 30.18 851 25.13 11.9 53.3 23 -8.5 16.7
14:20 1022 30.18 851 25.13 11.4 52.6 23 -8.7 16.3
14:25 1021 30.15 851 25.13 12.1 53.7 22 -9 15.8
14:30 1021 30.15 851 25.13 12.7 54.9 21 -9.4 15.2
14:35 1021 30.15 850 25.1 13.4 56.1 20 -9 15.9
14:40 1021 30.15 850 25.1 13 55.4 20 -9.4 15
14:45 1021 30.15 850 25.1 13.2 55.7 20 -9 15.8
14:50 1021 30.15 850 25.1 13.8 56.9 19 -9.2 15.5
14:55 1021 30.15 850 25.1 14 57.2 19 -9.1 15.6
15:00 1021 30.15 850 25.1 14.4 58 18 -9.4 15.1
15:05 1021 30.15 850 25.1 14.6 58.3 19 -9 15.8
15:10 1021 30.15 850 25.1 14.9 58.8 18 -9.2 15.5
15:15 1021 30.15 850 25.1 14.9 58.8 18 -9.5 15
15:20 1021 30.15 850 25.1 15.1 59.2 18 -9 15.8
15:25 1021 30.15 850 25.1 14.9 58.8 18 -8.9 16
15:30 1021 30.15 850 25.1 14.9 58.9 18 -9.2 15.4
15:35 1021 30.15 850 25.1 14.7 58.5 19 -8.9 16
15:40 1020 30.12 850 25.1 13.9 56.9 19 -9.2 15.5
15:45 1021 30.15 850 25.1 13.9 57.1 18 -9.7 14.5
15:50 1020 30.12 850 25.1 15 58.9 17 -9.6 14.7
15:55 1020 30.12 850 25.1 15.2 59.3 17 -9.8 14.4
16:00 1020 30.12 849 25.07 14.9 58.9 18 -9.2 15.4
16:05 1020 30.12 849 25.07 14.9 58.8 18 -9.2 15.4
16:10 1020 30.12 849 25.07 14.4 58 18 -9.5 15
16:15 1020 30.12 849 25.07 14.7 58.4 18 -9.3 15.2
16:20 1020 30.12 849 25.07 15.2 59.3 18 -9.3 15.3
16:25 1020 30.12 849 25.07 15.3 59.6 18 -9.1 15.6
16:30 1020 30.12 849 25.07 15.3 59.5 18 -8.9 15.9
16:35 1020 30.12 849 25.07 15 59 18 -8.8 16.2
16:40 1020 30.12 849 25.07 15.1 59.1 18 -9.2 15.5
16:45 1020 30.12 849 25.07 15 59 18 -8.9 15.9
16:50 1020 30.12 849 25.07 15.3 59.6 18 -9.1 15.6
16:55 1020 30.12 849 25.07 15.5 60 17 -9.3 15.3
17:00 1020 30.12 849 25.07 15.5 59.9 17 -9.5 14.9
17:05 1020 30.12 849 25.07 15.6 60.1 17 -9.1 15.7
17:10 1020 30.12 849 25.07 15.6 60 17 -9.3 15.3
17:15 1020 30.12 849 25.07 15.3 59.6 17 -9.4 15.1
17:20 1020 30.12 849 25.07 15.5 60 17 -9.5 14.9
17:25 1020 30.12 849 25.07 15.4 59.6 19 -8.4 16.9
17:30 1020 30.12 849 25.07 14.9 58.8 18 -9.2 15.4
17:35 1020 30.12 849 25.07 14.7 58.4 18 -9.5 14.8
17:40 1020 30.12 849 25.07 14.5 58 18 -9.5 14.9
17:45 1020 30.12 849 25.07 14.3 57.8 18 -9.5 15
17:50 1020 30.12 849 25.07 14.3 57.7 18 -9.4 15.1
17:55 1020 30.12 849 25.07 14.2 57.6 19 -9.1 15.6
18:00 1020 30.12 849 25.07 14.2 57.5 19 -8.9 16
18:05 1020 30.12 849 25.07 14.1 57.4 19 -8.8 16.1
18:10 1020 30.12 849 25.07 14.1 57.4 20 -8.6 16.4
18:15 1020 30.12 849 25.07 14.1 57.3 20 -8.3 17.1
18:20 1020 30.12 849 25.07 14 57.2 21 -8.2 17.3
18:25 1020 30.12 849 25.07 14.1 57.3 21 -8.1 17.4
18:30 1020 30.12 849 25.07 14 57.2 22 -7.5 18.6
18:35 1020 30.12 849 25.07 14 57.2 21 -8 17.7
18:40 1020 30.12 849 25.07 14 57.1 21 -7.7 18.1
18:45 1020 30.12 849 25.07 13.9 56.9 22 -7.7 18.2
18:50 1020 30.12 849 25.07 13.6 56.5 24 -6.8 19.8
18:55 1020 30.12 850 25.1 13.2 55.7 23 -7.5 18.4
19:00 1020 30.12 850 25.1 13.1 55.5 25 -6.6 20.2
19:05 1020 30.12 850 25.1 12.7 54.8 26 -6.3 20.6
19:10 1020 30.12 850 25.1 12.4 54.4 26 -6.4 20.5
19:15 1020 30.12 850 25.1 12.4 54.3 26 -6.5 20.3
19:20 1021 30.15 850 25.1 12.4 54.3 26 -6.5 20.3
19:25 1021 30.15 850 25.1 12.4 54.3 26 -6.7 19.9
19:30 1021 30.15 850 25.1 12.5 54.5 25 -6.7 19.9
19:35 1021 30.15 850 25.1 12.4 54.3 26 -6.6 20
19:40 1021 30.15 850 25.1 12.2 54 26 -6.6 20.1
19:45 1021 30.15 850 25.1 12.1 53.8 26 -6.6 20.1
19:50 1021 30.15 850 25.1 11.9 53.4 27 -6.6 20.1
19:55 1021 30.15 850 25.1 11.8 53.2 27 -6.7 20
20:00 1021 30.15 850 25.1 11.7 53 27 -6.6 20.1
20:05 1021 30.15 850 25.1 11.5 52.7 28 -6.5 20.3
20:10 1021 30.15 851 25.13 11.3 52.4 28 -6.4 20.5
20:15 1021 30.15 851 25.13 10.7 51.2 32 -5.2 22.6
20:20 1022 30.18 851 25.13 9.9 49.7 34 -5.4 22.3
20:25 1022 30.18 851 25.13 9.7 49.5 33 -5.9 21.4
20:30 1022 30.18 851 25.13 9.8 49.6 32 -6.2 20.8
20:35 1022 30.18 851 25.13 9.8 49.7 32 -6.1 21
20:40 1022 30.18 851 25.13 9.8 49.6 32 -6.2 20.9
20:45 1022 30.18 851 25.13 9.8 49.7 31 -6.4 20.5
20:50 1022 30.18 851 25.13 9.9 49.8 31 -6.5 20.4
20:55 1022 30.18 851 25.13 9.9 49.9 31 -6.3 20.6
21:00 1022 30.18 851 25.13 10 50 31 -6.5 20.4
21:05 1022 30.18 851 25.13 10.1 50.2 31 -6.2 20.8
21:10 1022 30.18 851 25.13 10.1 50.3 31 -6.1 21
21:15 1022 30.18 851 25.13 10 49.9 32 -6 21.2
21:20 1022 30.18 851 25.13 9.8 49.6 32 -6.2 20.8
21:25 1022 30.18 851 25.13 9.7 49.5 33 -6 21.2
21:30 1022 30.18 851 25.13 9.6 49.2 32 -6.2 20.9
21:35 1022 30.18 851 25.13 9.6 49.3 32 -6.3 20.7
21:40 1022 30.18 851 25.13 9.7 49.4 33 -5.8 21.6
21:45 1022 30.18 851 25.13 9.3 48.7 34 -5.8 21.5
21:50 1022 30.18 851 25.13 9.2 48.6 33 -6 21.2
21:55 1022 30.18 851 25.13 9.3 48.8 34 -5.9 21.5
22:00 1022 30.18 851 25.13 9.2 48.5 34 -5.8 21.6
22:05 1022 30.18 851 25.13 9 48.1 35 -5.6 22
22:10 1022 30.18 851 25.13 8.6 47.5 38 -5 23
22:15 1022 30.18 851 25.13 8 46.3 40 -5 23.1
22:20 1022 30.18 851 25.13 7.8 46 39 -5.2 22.6
22:25 1022 30.18 851 25.13 7.9 46.2 40 -5 23.1
22:30 1022 30.18 851 25.13 7.6 45.7 41 -4.9 23.2
22:35 1022 30.18 851 25.13 7.5 45.5 41 -5 23.1
22:40 1022 30.18 851 25.13 7.7 45.8 40 -5 23
22:45 1022 30.18 851 25.13 7.8 46.1 39 -5.4 22.3
22:50 1022 30.18 851 25.13 7.9 46.1 40 -5 23
22:55 1022 30.18 851 25.13 7.5 45.5 40 -5.3 22.5
23:00 1022 30.18 851 25.13 7.5 45.5 40 -5 22.9
23:05 1022 30.18 851 25.13 7.4 45.3 41 -5 22.9
23:10 1022 30.18 851 25.13 7.4 45.4 42 -4.7 23.5
23:15 1022 30.18 851 25.13 7.2 44.9 43 -4.7 23.5
23:20 1022 30.18 851 25.13 6.9 44.4 43 -4.7 23.6
23:25 1022 30.18 851 25.13 6.7 44.1 44 -4.6 23.7
23:30 1022 30.18 851 25.13 7 44.6 41 -5.3 22.4
23:35 1022 30.18 851 25.13 7.7 45.8 39 -5.5 22.1
23:40 1022 30.18 851 25.13 8.2 46.8 39 -5.1 22.9
23:45 1022 30.18 851 25.13 7.9 46.3 40 -5 23
23:50 1022 30.18 851 25.13 7.9 46.2 40 -4.8 23.3
23:55 1022 30.18 851 25.13 7.6 45.6 42 -4.6 23.6
24:00 1022 30.18 851 25.13 7.3 45.1 43 -4.5 23.8